Time;durP1;ratioP1;P1;durP2;ratioP2;P2;SDS_P1;SDS_P2;PMS_P1;PMS_P2;Temp;Humidity;BMP_temperature;BMP_pressure;BME280_temperature;BME280_humidity;BME280_pressure;Samples;Min_cycle;Max_cycle;Signal;HPM_P1;HPM_P2
2023/09/04 04:06:13;;;;;;;2.27;2.07;;;14.10;99.90;;;;;;5378448;23;20537;-62
2023/09/04 04:08:39;;;;;;;2.40;2.03;;;14.10;99.90;;;;;;4974861;28;20405;-62
2023/09/04 04:11:05;;;;;;;1.93;1.80;;;14.10;99.90;;;;;;4974809;28;20411;-63
2023/09/04 04:13:30;;;;;;;2.10;1.80;;;14.10;99.90;;;;;;4975511;28;20168;-64
2023/09/04 04:15:57;;;;;;;2.40;2.20;;;14.10;99.90;;;;;;4974495;28;20485;-63
2023/09/04 04:18:23;;;;;;;3.10;2.80;;;14.10;99.90;;;;;;4974916;28;20180;-63
2023/09/04 04:20:48;;;;;;;2.73;2.53;;;14.10;99.90;;;;;;4974633;28;20878;-64
2023/09/04 04:23:14;;;;;;;3.87;2.30;;;14.00;99.90;;;;;;4974887;28;20226;-64
2023/09/04 04:25:40;;;;;;;2.70;2.50;;;14.00;99.90;;;;;;4974106;28;20215;-63
2023/09/04 04:28:07;;;;;;;2.73;2.50;;;14.00;99.90;;;;;;4974755;28;20175;-64
2023/09/04 04:30:34;;;;;;;1.97;1.87;;;14.00;99.90;;;;;;4974529;28;20410;-62
2023/09/04 04:32:59;;;;;;;2.23;2.00;;;14.00;99.90;;;;;;4974655;28;20421;-63
2023/09/04 04:35:25;;;;;;;2.50;2.30;;;14.00;99.90;;;;;;4973343;28;20409;-62
2023/09/04 04:37:50;;;;;;;3.90;2.60;;;14.00;99.90;;;;;;4974759;28;20210;-62
2023/09/04 04:40:23;;;;;;;3.00;2.70;;;14.00;99.90;;;;;;4974525;28;20233;-65
2023/09/04 04:42:49;;;;;;;4.43;2.67;;;14.00;99.90;;;;;;4974561;28;20519;-63
2023/09/04 04:45:14;;;;;;;3.60;2.60;;;13.90;99.90;;;;;;4973903;28;20437;-65
2023/09/04 04:47:40;;;;;;;3.33;2.57;;;13.90;99.90;;;;;;4974602;28;20390;-65
2023/09/04 04:50:08;;;;;;;2.83;2.63;;;13.90;99.90;;;;;;4974471;28;20179;-62
2023/09/04 04:52:34;;;;;;;2.27;1.97;;;13.90;99.90;;;;;;4974623;28;20622;-64
2023/09/04 04:55:00;;;;;;;2.73;2.53;;;13.90;99.90;;;;;;4974134;28;20453;-65
2023/09/04 04:57:25;;;;;;;2.47;2.27;;;13.90;99.90;;;;;;4958696;28;20172;-62
2023/09/04 04:59:51;;;;;;;2.77;2.10;;;13.90;99.90;;;;;;4974592;28;20230;-64
2023/09/04 05:02:17;;;;;;;2.60;2.40;;;13.90;99.90;;;;;;4974373;28;20180;-63
2023/09/04 05:04:46;;;;;;;3.00;2.70;;;13.90;99.90;;;;;;4973841;28;20226;-64
2023/09/04 05:07:13;;;;;;;2.40;2.10;;;13.90;99.90;;;;;;4973978;28;20418;-63
2023/09/04 05:09:38;;;;;;;3.20;2.90;;;13.90;99.90;;;;;;4974224;28;20430;-63
2023/09/04 05:12:04;;;;;;;2.40;2.20;;;13.90;99.90;;;;;;4956535;28;20898;-63
2023/09/04 05:14:30;;;;;;;2.83;2.60;;;14.00;99.90;;;;;;4954575;29;20179;-64
2023/09/04 05:16:56;;;;;;;3.07;2.43;;;14.10;99.90;;;;;;4955073;29;20424;-64
2023/09/04 05:19:22;;;;;;;2.93;2.30;;;14.10;99.90;;;;;;4955026;29;20279;-63
2023/09/04 05:21:47;;;;;;;2.80;2.60;;;14.20;99.90;;;;;;4954929;29;20315;-65
2023/09/04 05:24:13;;;;;;;2.87;2.50;;;14.30;99.90;;;;;;4954397;29;20232;-64
2023/09/04 05:26:39;;;;;;;3.43;3.13;;;14.40;99.90;;;;;;4970025;28;20196;-64
2023/09/04 05:29:05;;;;;;;2.47;2.27;;;14.50;99.90;;;;;;4974103;28;20658;-64
2023/09/04 05:31:30;;;;;;;2.07;1.97;;;14.60;99.90;;;;;;4974465;28;20378;-64
2023/09/04 05:33:56;;;;;;;4.10;2.20;;;14.60;99.90;;;;;;4977233;28;20301;-65
2023/09/04 05:36:22;;;;;;;4.63;3.00;;;14.70;99.90;;;;;;4977242;28;20606;-63
2023/09/04 05:38:48;;;;;;;6.10;3.37;;;14.80;99.90;;;;;;4977330;28;20429;-65
2023/09/04 05:41:14;;;;;;;3.67;3.37;;;14.80;99.90;;;;;;4962784;28;20236;-65
2023/09/04 05:43:40;;;;;;;7.13;3.60;;;14.80;99.90;;;;;;4957997;29;20173;-63
2023/09/04 05:46:06;;;;;;;4.10;2.87;;;14.80;99.90;;;;;;4958065;29;20424;-63
2023/09/04 05:48:33;;;;;;;3.93;3.53;;;14.90;99.90;;;;;;4958295;29;20177;-62
2023/09/04 05:51:00;;;;;;;3.33;3.03;;;15.00;99.90;;;;;;4958296;29;20180;-65
2023/09/04 05:53:26;;;;;;;3.33;3.03;;;15.10;99.90;;;;;;4958248;28;20449;-64
2023/09/04 05:56:06;;;;;;;3.47;3.13;;;15.20;99.90;;;;;;4971515;28;20454;-62
2023/09/04 05:58:32;;;;;;;2.67;2.27;;;15.30;99.90;;;;;;4977468;28;20267;-65
2023/09/04 06:00:57;;;;;;;2.83;2.53;;;15.40;99.90;;;;;;4977384;28;20784;-62
2023/09/04 06:03:24;;;;;;;4.40;3.00;;;15.60;99.90;;;;;;4977331;28;20384;-64
2023/09/04 06:05:49;;;;;;;4.20;3.50;;;15.80;99.90;;;;;;4976794;28;20209;-62
2023/09/04 06:08:15;;;;;;;3.30;2.97;;;16.10;99.90;;;;;;4967960;28;20439;-62
2023/09/04 06:10:41;;;;;;;2.73;2.33;;;16.30;99.90;;;;;;4957811;29;20176;-65
2023/09/04 06:13:06;;;;;;;3.23;3.00;;;16.50;99.90;;;;;;4957888;28;20403;-65
2023/09/04 06:15:32;;;;;;;3.40;2.90;;;16.60;99.90;;;;;;4957457;29;20207;-64
2023/09/04 06:17:58;;;;;;;3.33;3.03;;;16.90;99.90;;;;;;4972126;28;20205;-63
2023/09/04 06:20:23;;;;;;;2.40;2.20;;;17.00;99.90;;;;;;4996253;28;20177;-68
2023/09/04 06:22:49;;;;;;;1.70;1.60;;;17.20;99.90;;;;;;4987652;28;20197;-69
2023/09/04 06:25:14;;;;;;;2.50;1.83;;;17.20;99.90;;;;;;4976358;28;20208;-68
2023/09/04 06:27:40;;;;;;;2.60;2.37;;;17.20;99.90;;;;;;4977058;28;20175;-69
2023/09/04 06:30:06;;;;;;;2.73;2.30;;;17.30;99.90;;;;;;4976832;28;20169;-68
2023/09/04 06:32:32;;;;;;;2.10;2.00;;;17.30;99.90;;;;;;4966204;28;20267;-68
2023/09/04 06:34:58;;;;;;;2.10;1.90;;;17.30;99.90;;;;;;4990193;28;21065;-68
2023/09/04 06:37:25;;;;;;;2.63;2.50;;;17.30;99.90;;;;;;4973583;28;20472;-69
2023/09/04 06:39:50;;;;;;;2.90;2.70;;;17.30;99.90;;;;;;4978645;28;20604;-70
2023/09/04 06:42:16;;;;;;;2.67;2.47;;;17.40;99.90;;;;;;4975086;28;20531;-67
2023/09/04 06:44:41;;;;;;;2.63;2.43;;;17.40;99.90;;;;;;4973525;28;20211;-70
2023/09/04 06:47:07;;;;;;;2.50;1.80;;;17.50;99.90;;;;;;4974090;28;20175;-66
2023/09/04 06:49:32;;;;;;;2.30;2.10;;;17.50;99.90;;;;;;4979661;28;20531;-67
2023/09/04 06:51:58;;;;;;;2.40;2.20;;;17.50;99.90;;;;;;4982182;28;20225;-65
2023/09/04 06:54:24;;;;;;;2.17;2.00;;;17.50;99.90;;;;;;4993869;28;20533;-68
2023/09/04 06:56:49;;;;;;;2.50;2.30;;;17.60;99.90;;;;;;4941228;28;20190;-67
2023/09/04 06:59:15;;;;;;;2.17;1.97;;;17.70;99.90;;;;;;4963511;28;20216;-68
2023/09/04 07:01:41;;;;;;;3.03;2.83;;;17.80;99.90;;;;;;4962694;28;20722;-69
2023/09/04 07:04:07;;;;;;;2.80;2.57;;;17.90;99.90;;;;;;4968110;28;20517;-70
2023/09/04 07:06:32;;;;;;;2.57;2.30;;;18.00;99.90;;;;;;4975576;28;20214;-69
2023/09/04 07:08:58;;;;;;;2.60;2.40;;;18.10;99.90;;;;;;4975562;28;20180;-69
2023/09/04 07:11:25;;;;;;;2.20;2.00;;;18.30;99.90;;;;;;4972545;28;20219;-70
2023/09/04 07:13:52;;;;;;;2.67;2.47;;;18.40;99.90;;;;;;4970887;28;20434;-71
2023/09/04 07:16:17;;;;;;;2.63;2.43;;;18.50;99.90;;;;;;4971548;28;20378;-69
2023/09/04 07:18:43;;;;;;;2.17;2.00;;;18.60;99.90;;;;;;4972327;28;20469;-70
2023/09/04 07:21:08;;;;;;;2.37;2.17;;;18.70;99.90;;;;;;4965562;28;20192;-69
2023/09/04 07:23:34;;;;;;;2.30;2.17;;;18.80;99.90;;;;;;4971195;28;20188;-70
2023/09/04 07:26:01;;;;;;;2.60;2.40;;;18.90;99.90;;;;;;4947375;28;20230;-70
2023/09/04 07:28:27;;;;;;;2.40;2.20;;;19.00;99.90;;;;;;4964990;28;20172;-67
2023/09/04 07:31:12;;;;;;;1.60;1.50;;;19.10;99.90;;;;;;4975946;28;20777;-67
2023/09/04 07:33:38;;;;;;;2.20;2.03;;;19.40;99.90;;;;;;4976393;28;20412;-67
2023/09/04 07:36:04;;;;;;;2.33;2.23;;;19.50;99.90;;;;;;4975222;28;20510;-67
2023/09/04 07:38:31;;;;;;;2.33;2.23;;;19.70;99.90;;;;;;4984803;28;20175;-67
2023/09/04 07:41:00;;;;;;;1.93;1.83;;;19.90;99.90;;;;;;4994765;28;20422;-65
2023/09/04 07:43:26;;;;;;;1.67;1.53;;;20.10;99.90;;;;;;4981349;28;20416;-69
2023/09/04 07:45:53;;;;;;;2.30;2.10;;;20.30;99.90;;;;;;4974733;28;20434;-67
2023/09/04 07:48:18;;;;;;;2.53;2.33;;;20.60;99.90;;;;;;4975263;28;20534;-71
2023/09/04 07:50:44;;;;;;;1.93;1.83;;;20.80;99.90;;;;;;4978454;28;20385;-67
2023/09/04 07:53:09;;;;;;;2.50;2.30;;;21.10;99.90;;;;;;4977455;28;20199;-66
2023/09/04 07:55:35;;;;;;;2.47;1.90;;;21.70;99.90;;;;;;4974436;28;20204;-69
2023/09/04 07:58:01;;;;;;;2.20;2.07;;;22.60;99.90;;;;;;4974630;28;20184;-69
2023/09/04 08:00:27;;;;;;;2.63;2.43;;;23.60;99.90;;;;;;4975279;28;20185;-66
2023/09/04 08:02:52;;;;;;;2.53;2.00;;;24.60;99.90;;;;;;4974704;28;20183;-66
2023/09/04 08:05:18;;;;;;;3.27;2.70;;;25.50;99.60;;;;;;4974211;28;20829;-69
2023/09/04 08:07:43;;;;;;;3.70;2.80;;;26.50;97.70;;;;;;4973723;28;20195;-69
2023/09/04 08:10:09;;;;;;;2.70;2.50;;;27.40;94.80;;;;;;4975059;28;20200;-67
2023/09/04 08:12:35;;;;;;;2.60;2.40;;;28.10;93.60;;;;;;4960444;28;20197;-66
2023/09/04 08:15:00;;;;;;;3.00;2.80;;;28.70;92.70;;;;;;4978966;28;20278;-68
2023/09/04 08:17:26;;;;;;;2.80;2.60;;;29.20;92.00;;;;;;4965656;28;20185;-69
2023/09/04 08:19:52;;;;;;;2.57;2.37;;;29.70;90.30;;;;;;4989323;28;20180;-68
2023/09/04 08:22:17;;;;;;;2.20;2.07;;;30.20;89.10;;;;;;4973884;28;20653;-67
2023/09/04 08:24:43;;;;;;;2.20;2.00;;;30.30;87.40;;;;;;4974193;28;20228;-68
2023/09/04 08:27:08;;;;;;;2.10;2.00;;;30.30;85.80;;;;;;4973851;28;20185;-69
2023/09/04 08:29:34;;;;;;;2.80;2.60;;;30.30;86.50;;;;;;4956980;28;20238;-67
2023/09/04 08:31:59;;;;;;;2.63;2.43;;;30.50;87.00;;;;;;4974403;28;20191;-69
2023/09/04 08:34:25;;;;;;;2.80;2.60;;;30.80;85.30;;;;;;4961285;28;20191;-70
2023/09/04 08:36:50;;;;;;;3.07;2.87;;;30.90;83.70;;;;;;4984534;28;20181;-69
2023/09/04 08:39:16;;;;;;;2.30;2.20;;;30.80;83.90;;;;;;4974304;28;20639;-68
2023/09/04 08:41:42;;;;;;;3.17;2.97;;;30.60;84.50;;;;;;4974190;28;20593;-66
2023/09/04 08:44:08;;;;;;;2.70;2.50;;;30.50;84.70;;;;;;4973811;28;20208;-69
2023/09/04 08:46:35;;;;;;;2.53;2.33;;;30.30;85.10;;;;;;4973029;28;20226;-66
2023/09/04 08:49:02;;;;;;;2.40;2.30;;;30.50;85.80;;;;;;4967132;28;20424;-69
2023/09/04 08:51:29;;;;;;;2.37;2.27;;;30.90;83.90;;;;;;4971392;28;20510;-68
2023/09/04 08:53:56;;;;;;;2.17;2.07;;;31.20;83.30;;;;;;4964093;28;21133;-68
2023/09/04 08:56:21;;;;;;;2.67;2.47;;;31.40;82.30;;;;;;4969256;28;20566;-67
2023/09/04 08:58:47;;;;;;;2.60;2.40;;;31.70;81.80;;;;;;4984713;28;20426;-67
2023/09/04 09:01:15;;;;;;;2.33;2.13;;;32.00;81.10;;;;;;4980085;28;20650;-68
2023/09/04 09:03:42;;;;;;;2.20;2.10;;;32.20;79.50;;;;;;4976958;28;20178;-67
2023/09/04 09:06:08;;;;;;;2.53;2.37;;;32.20;79.40;;;;;;4969489;28;20978;-66
2023/09/04 09:08:34;;;;;;;2.37;2.20;;;32.30;80.40;;;;;;4960416;28;20432;-67
2023/09/04 09:11:01;;;;;;;2.83;2.63;;;32.60;78.30;;;;;;4965108;28;20186;-67
2023/09/04 09:13:26;;;;;;;2.93;2.73;;;32.80;78.80;;;;;;4967227;28;20227;-66
2023/09/04 09:15:54;;;;;;;2.30;2.20;;;33.10;78.30;;;;;;4985302;28;20448;-66
2023/09/04 09:18:37;;;;;;;2.90;2.40;;;33.30;76.40;;;;;;4985084;28;20265;-66
2023/09/04 09:21:27;;;;;;;2.10;2.00;;;33.70;75.50;;;;;;4967358;28;20442;-67
2023/09/04 09:24:14;;;;;;;2.23;2.13;;;33.90;75.20;;;;;;4960511;28;20428;-68
2023/09/04 09:26:43;;;;;;;2.40;2.30;;;33.90;74.30;;;;;;4969236;28;20537;-66
2023/09/04 09:29:10;;;;;;;2.37;2.27;;;34.10;72.90;;;;;;4972447;28;20416;-66
2023/09/04 09:31:37;;;;;;;2.77;2.57;;;34.30;74.00;;;;;;4977477;28;20510;-67
2023/09/04 09:34:03;;;;;;;2.47;2.27;;;34.50;72.90;;;;;;4964113;28;20794;-67
2023/09/04 09:36:29;;;;;;;2.30;2.10;;;34.90;70.90;;;;;;4958051;29;20436;-66
2023/09/04 09:38:55;;;;;;;2.63;2.43;;;34.70;70.40;;;;;;4958170;29;20500;-66
2023/09/04 09:41:20;;;;;;;2.70;2.50;;;34.60;71.40;;;;;;4970426;28;20549;-66
2023/09/04 09:43:46;;;;;;;2.77;2.57;;;34.60;70.70;;;;;;4976825;28;20188;-66
2023/09/04 09:46:16;;;;;;;2.30;2.20;;;34.40;70.80;;;;;;4976139;28;20208;-68
2023/09/04 09:48:43;;;;;;;2.70;2.50;;;34.40;69.90;;;;;;4976315;28;20180;-65
2023/09/04 09:51:10;;;;;;;2.33;2.17;;;34.50;70.10;;;;;;4977259;28;20423;-67
2023/09/04 09:53:46;;;;;;;2.23;2.13;;;34.60;71.10;;;;;;4976802;28;20444;-67
2023/09/04 09:56:13;;;;;;;2.20;2.10;;;35.10;69.60;;;;;;4976426;28;20457;-67
2023/09/04 09:58:41;;;;;;;2.50;2.30;;;35.10;68.80;;;;;;4986648;28;20435;-66
2023/09/04 10:01:08;;;;;;;2.27;2.10;;;35.00;69.50;;;;;;4996486;28;20836;-65
2023/09/04 10:03:38;;;;;;;2.37;2.27;;;35.00;67.70;;;;;;4982178;28;20427;-67
2023/09/04 10:06:05;;;;;;;2.80;2.60;;;34.70;68.40;;;;;;4976913;28;20494;-65
2023/09/04 10:08:34;;;;;;;2.50;2.30;;;34.60;69.50;;;;;;4976789;28;20430;-64
2023/09/04 10:11:04;;;;;;;2.10;2.00;;;34.80;67.70;;;;;;4976279;28;20511;-66
2023/09/04 10:13:35;;;;;;;2.93;2.73;;;34.70;68.00;;;;;;4959287;28;20426;-65
2023/09/04 10:16:04;;;;;;;2.27;2.17;;;34.40;67.50;;;;;;4971428;28;20944;-67
2023/09/04 10:18:32;;;;;;;2.37;2.23;;;34.30;66.90;;;;;;4987549;28;20408;-66
2023/09/04 10:20:59;;;;;;;3.07;2.87;;;34.00;68.00;;;;;;4976812;28;20456;-68
2023/09/04 10:23:31;;;;;;;2.90;2.70;;;33.60;68.70;;;;;;4978049;28;20418;-67
2023/09/04 10:26:07;;;;;;;2.43;2.23;;;33.20;69.10;;;;;;4978992;28;20490;-66
2023/09/04 10:28:39;;;;;;;2.67;2.47;;;33.20;69.10;;;;;;4976863;28;20407;-67
2023/09/04 10:31:05;;;;;;;2.20;2.10;;;33.20;68.60;;;;;;4975985;28;20419;-68
2023/09/04 10:33:31;;;;;;;2.17;2.07;;;33.40;69.10;;;;;;4976284;28;20407;-66
2023/09/04 10:35:58;;;;;;;2.40;2.20;;;33.60;67.50;;;;;;4976881;28;20488;-67
2023/09/04 10:38:25;;;;;;;2.40;2.20;;;33.60;65.20;;;;;;4984241;28;20431;-67
2023/09/04 10:40:52;;;;;;;2.93;2.73;;;33.20;63.60;;;;;;4976355;28;20421;-66
2023/09/04 10:43:18;;;;;;;1.97;1.87;;;32.60;65.20;;;;;;4970440;28;20459;-66
2023/09/04 10:46:13;;;;;;;2.53;1.73;;;32.60;65.40;;;;;;4975876;28;20981;-68
2023/09/04 10:48:46;;;;;;;2.10;2.00;;;32.50;64.90;;;;;;4958091;28;20435;-66
2023/09/04 10:51:35;;;;;;;2.87;2.47;;;32.40;64.30;;;;;;4975738;28;20420;-67
2023/09/04 10:54:02;;;;;;;2.40;2.20;;;32.20;64.60;;;;;;4975397;28;20493;-67
2023/09/04 10:56:28;;;;;;;2.50;2.30;;;31.90;62.70;;;;;;4976238;28;20457;-67
2023/09/04 10:59:05;;;;;;;2.73;2.23;;;31.90;64.20;;;;;;4987193;28;20748;-67
2023/09/04 11:01:39;;;;;;;2.70;2.50;;;31.50;65.40;;;;;;4976662;28;20184;-68
2023/09/04 11:04:07;;;;;;;2.90;2.60;;;31.60;64.90;;;;;;4975485;28;20510;-66
2023/09/04 11:06:35;;;;;;;2.50;2.30;;;31.50;62.90;;;;;;4979994;28;20434;-65
2023/09/04 11:09:02;;;;;;;2.27;2.07;;;31.30;64.20;;;;;;4970067;28;20432;-67
2023/09/04 11:11:28;;;;;;;2.03;1.90;;;30.70;63.90;;;;;;4960811;28;20463;-65
2023/09/04 11:13:58;;;;;;;2.90;2.70;;;30.10;66.00;;;;;;4974317;28;20411;-65
2023/09/04 11:16:26;;;;;;;2.37;2.17;;;29.60;67.20;;;;;;4971549;28;20204;-65
2023/09/04 11:19:14;;;;;;;2.50;2.03;;;29.10;69.10;;;;;;4978918;28;20858;-66
2023/09/04 11:21:44;;;;;;;2.37;2.17;;;28.50;70.90;;;;;;4981913;28;20713;-66
2023/09/04 11:24:09;;;;;;;2.20;1.83;;;28.10;72.20;;;;;;4976105;28;20553;-66
2023/09/04 11:26:35;;;;;;;2.27;2.07;;;27.90;72.30;;;;;;4968640;28;20538;-67
2023/09/04 11:29:02;;;;;;;1.80;1.70;;;27.60;73.30;;;;;;4947318;28;20192;-65
2023/09/04 11:31:30;;;;;;;1.67;1.57;;;27.40;73.00;;;;;;4973209;28;20262;-65
2023/09/04 11:33:57;;;;;;;2.70;2.00;;;27.20;73.00;;;;;;4974585;28;20404;-65
2023/09/04 11:36:23;;;;;;;2.70;1.80;;;27.10;73.20;;;;;;4975034;28;20446;-66
2023/09/04 11:39:14;;;;;;;2.07;1.93;;;27.00;70.60;;;;;;4975059;28;20442;-66
2023/09/04 11:41:40;;;;;;;2.13;1.93;;;27.00;70.20;;;;;;4975002;28;20418;-63
2023/09/04 11:44:07;;;;;;;2.23;2.13;;;26.90;71.70;;;;;;4965428;28;20446;-64
2023/09/04 11:46:33;;;;;;;2.43;2.23;;;26.90;71.90;;;;;;4976639;28;20277;-65
2023/09/04 11:48:59;;;;;;;2.73;1.73;;;26.80;72.70;;;;;;4968161;28;20503;-64
2023/09/04 11:51:25;;;;;;;2.10;2.00;;;26.80;72.50;;;;;;4980703;28;20450;-66
2023/09/04 11:53:52;;;;;;;2.50;1.97;;;26.80;73.50;;;;;;4958693;28;20216;-68
2023/09/04 11:56:18;;;;;;;2.10;1.63;;;26.80;74.50;;;;;;4970763;28;21000;-66
2023/09/04 11:58:48;;;;;;;2.20;2.00;;;26.80;73.70;;;;;;4961714;28;20411;-64
2023/09/04 12:01:13;;;;;;;1.90;1.80;;;26.80;73.40;;;;;;4982078;28;20184;-65
2023/09/04 12:03:42;;;;;;;2.17;1.93;;;26.80;72.90;;;;;;4980561;28;20407;-66
2023/09/04 12:06:12;;;;;;;3.70;1.80;;;26.80;73.10;;;;;;4982431;28;20295;-67
2023/09/04 12:08:41;;;;;;;2.00;1.90;;;26.90;72.80;;;;;;4986370;28;20391;-66
2023/09/04 12:11:07;;;;;;;2.17;2.07;;;26.90;72.50;;;;;;4995520;28;20442;-67
2023/09/04 12:13:36;;;;;;;1.70;1.60;;;27.00;71.90;;;;;;4987108;28;20405;-70
2023/09/04 12:16:09;;;;;;;2.20;2.00;;;27.00;71.40;;;;;;4970169;28;20537;-65
2023/09/04 12:18:43;;;;;;;2.33;2.13;;;27.00;72.40;;;;;;4968077;28;20830;-67
2023/09/04 12:21:10;;;;;;;1.70;1.60;;;27.10;72.30;;;;;;4963859;28;20467;-67
2023/09/04 12:23:46;;;;;;;2.13;2.03;;;27.10;69.30;;;;;;4969142;28;20421;-66
2023/09/04 12:26:17;;;;;;;1.60;1.50;;;27.20;69.60;;;;;;4983675;28;20456;-66
2023/09/04 12:28:47;;;;;;;1.57;1.47;;;27.10;68.70;;;;;;4993753;28;20416;-65
2023/09/04 12:31:17;;;;;;;2.20;1.80;;;27.10;69.80;;;;;;4981931;28;20383;-68
2023/09/04 12:33:43;;;;;;;1.83;1.73;;;27.10;67.40;;;;;;4981374;28;20380;-63
2023/09/04 12:36:11;;;;;;;1.60;1.50;;;27.10;67.90;;;;;;4964628;28;20420;-66
2023/09/04 12:38:38;;;;;;;1.80;1.70;;;27.20;67.00;;;;;;4974774;28;20482;-67
2023/09/04 12:41:06;;;;;;;1.57;1.47;;;27.20;67.30;;;;;;4962101;28;20474;-66
2023/09/04 12:43:35;;;;;;;1.27;1.27;;;27.30;67.50;;;;;;4950200;28;20934;-65
2023/09/04 12:46:01;;;;;;;1.90;1.80;;;27.30;65.90;;;;;;4971098;28;20477;-64
2023/09/04 12:48:33;;;;;;;2.03;1.60;;;27.40;66.70;;;;;;4971211;28;20390;-66
2023/09/04 12:50:59;;;;;;;1.90;1.80;;;27.40;66.40;;;;;;4998098;28;20405;-64
2023/09/04 12:53:25;;;;;;;1.70;1.60;;;27.40;66.70;;;;;;4980681;28;20384;-67
2023/09/04 12:56:01;;;;;;;2.10;2.00;;;27.40;66.80;;;;;;4966081;28;20426;-63
2023/09/04 12:58:27;;;;;;;1.23;1.13;;;27.50;65.40;;;;;;4967792;28;20192;-62
2023/09/04 13:00:53;;;;;;;1.87;1.77;;;27.50;64.70;;;;;;4982279;28;20417;-62
2023/09/04 13:03:19;;;;;;;1.93;1.83;;;27.60;63.80;;;;;;4971426;28;20643;-60
2023/09/04 13:05:45;;;;;;;2.50;1.63;;;27.60;63.40;;;;;;4981831;28;20524;-61
2023/09/04 13:08:17;;;;;;;1.90;1.80;;;27.70;60.30;;;;;;4980798;28;20200;-63
2023/09/04 13:10:57;;;;;;;1.97;1.50;;;27.70;57.00;;;;;;4999895;28;20424;-64
2023/09/04 13:13:35;;;;;;;1.73;1.63;;;27.80;56.50;;;;;;4997705;28;20390;-62
2023/09/04 13:16:03;;;;;;;3.83;2.03;;;27.80;57.50;;;;;;4975133;28;20449;-63
2023/09/04 13:18:29;;;;;;;3.50;2.40;;;27.80;58.40;;;;;;4972442;28;20915;-61
2023/09/04 13:20:55;;;;;;;11.03;1.77;;;27.80;57.90;;;;;;4974245;28;20424;-64
2023/09/04 13:23:20;;;;;;;2.03;1.93;;;27.80;59.50;;;;;;4974043;28;20175;-65
2023/09/04 13:25:46;;;;;;;2.03;1.67;;;27.90;60.00;;;;;;4973355;28;20562;-60
2023/09/04 13:28:11;;;;;;;1.30;1.20;;;27.90;60.00;;;;;;4974222;28;20183;-63
2023/09/04 13:30:37;;;;;;;1.77;1.60;;;27.90;60.70;;;;;;4974126;28;20176;-62
2023/09/04 13:33:03;;;;;;;1.90;1.80;;;27.90;62.60;;;;;;4964258;28;20171;-63
2023/09/04 13:35:28;;;;;;;1.97;1.87;;;27.90;63.90;;;;;;4954269;29;20199;-67
2023/09/04 13:37:54;;;;;;;1.70;1.60;;;27.90;64.30;;;;;;4955032;29;20180;-64
2023/09/04 13:40:20;;;;;;;2.13;1.93;;;27.90;62.20;;;;;;4970565;28;20174;-67
2023/09/04 13:42:45;;;;;;;1.60;1.50;;;27.90;62.40;;;;;;4974191;28;20266;-62
2023/09/04 13:45:11;;;;;;;2.73;1.77;;;27.90;62.50;;;;;;4973729;28;20206;-62
2023/09/04 13:47:36;;;;;;;2.37;2.17;;;27.90;63.20;;;;;;4965659;28;20172;-64
2023/09/04 13:50:02;;;;;;;1.93;1.67;;;27.90;63.30;;;;;;4954842;29;20206;-62
2023/09/04 13:52:27;;;;;;;1.10;1.10;;;27.90;61.60;;;;;;4955197;28;20205;-62
2023/09/04 13:54:55;;;;;;;3.20;1.90;;;27.90;62.50;;;;;;4957834;29;20235;-66
2023/09/04 13:57:22;;;;;;;1.60;1.37;;;27.90;60.80;;;;;;4958304;29;20183;-66
2023/09/04 13:59:47;;;;;;;1.87;1.53;;;27.90;60.90;;;;;;4940976;29;20429;-65
2023/09/04 14:02:13;;;;;;;1.73;1.60;;;27.90;61.50;;;;;;4964741;28;20937;-62
2023/09/04 14:04:39;;;;;;;2.20;1.70;;;27.90;59.40;;;;;;4966154;28;20206;-65
2023/09/04 14:07:04;;;;;;;2.37;2.17;;;27.90;58.70;;;;;;4957664;28;20187;-62
2023/09/04 14:09:30;;;;;;;1.70;1.60;;;27.90;59.40;;;;;;4957755;29;20635;-63
2023/09/04 14:11:56;;;;;;;2.37;1.90;;;27.90;58.70;;;;;;4957700;28;20182;-67
2023/09/04 14:14:21;;;;;;;2.10;2.00;;;28.00;57.50;;;;;;4957462;28;20650;-64
2023/09/04 14:16:48;;;;;;;2.23;1.80;;;27.90;57.70;;;;;;4962747;28;20304;-66
2023/09/04 14:19:15;;;;;;;2.20;1.97;;;28.00;57.10;;;;;;4976800;28;20190;-62
2023/09/04 14:21:41;;;;;;;1.77;1.67;;;28.00;56.80;;;;;;4976756;28;20395;-67
2023/09/04 14:24:06;;;;;;;1.47;1.37;;;28.00;56.80;;;;;;4976324;28;20484;-63
2023/09/04 14:26:32;;;;;;;2.10;1.60;;;28.00;56.70;;;;;;4977065;28;20203;-64
2023/09/04 14:28:57;;;;;;;1.73;1.63;;;28.00;56.70;;;;;;4976923;28;20633;-67
2023/09/04 14:31:23;;;;;;;2.20;1.90;;;28.00;56.40;;;;;;4974091;28;20199;-67
2023/09/04 14:33:49;;;;;;;1.90;1.53;;;28.00;55.20;;;;;;4976463;28;20171;-66
2023/09/04 14:36:15;;;;;;;1.17;1.17;;;28.00;55.30;;;;;;4976864;28;20553;-64
2023/09/04 14:38:40;;;;;;;1.60;1.50;;;28.00;55.00;;;;;;4976654;28;20388;-62
2023/09/04 14:41:22;;;;;;;2.20;1.60;;;28.00;54.80;;;;;;4976779;28;20625;-61
2023/09/04 14:43:48;;;;;;;2.53;1.90;;;28.00;55.50;;;;;;4976132;28;20170;-64
2023/09/04 14:46:16;;;;;;;2.00;1.80;;;28.00;56.40;;;;;;4971021;28;20453;-62
2023/09/04 14:48:42;;;;;;;2.37;2.17;;;28.00;57.10;;;;;;4972071;28;20485;-62
2023/09/04 14:51:07;;;;;;;2.30;2.10;;;27.90;57.00;;;;;;4976351;28;20386;-63
2023/09/04 14:53:33;;;;;;;2.30;2.10;;;28.00;58.20;;;;;;4976257;28;20182;-62
2023/09/04 14:55:59;;;;;;;3.87;2.20;;;28.00;59.30;;;;;;4976124;28;20286;-62
2023/09/04 14:58:25;;;;;;;2.17;1.97;;;28.00;59.50;;;;;;4976306;28;20213;-62
2023/09/04 15:00:51;;;;;;;1.77;1.67;;;28.00;61.00;;;;;;4970953;28;20426;-65
2023/09/04 15:03:20;;;;;;;2.10;1.90;;;28.00;61.30;;;;;;4976077;28;20187;-67
2023/09/04 15:05:46;;;;;;;2.07;1.60;;;28.00;61.50;;;;;;4974756;28;20215;-65
2023/09/04 15:08:13;;;;;;;1.97;1.67;;;28.00;63.20;;;;;;4976209;28;20759;-62
2023/09/04 15:10:38;;;;;;;1.90;1.80;;;28.00;63.90;;;;;;4976195;28;20409;-65
2023/09/04 15:13:04;;;;;;;2.00;1.73;;;28.00;64.00;;;;;;4976106;28;20424;-67
2023/09/04 15:15:30;;;;;;;1.97;1.87;;;28.00;64.40;;;;;;4971969;28;20230;-61
2023/09/04 15:17:57;;;;;;;1.83;1.70;;;27.90;64.60;;;;;;4956761;29;20540;-65
2023/09/04 15:20:23;;;;;;;2.37;1.83;;;27.90;64.70;;;;;;4956588;29;20393;-62
2023/09/04 15:22:48;;;;;;;2.37;2.10;;;27.90;65.10;;;;;;4956654;28;20489;-61
2023/09/04 15:25:14;;;;;;;3.00;2.20;;;27.80;65.00;;;;;;4955995;29;20525;-67
2023/09/04 15:27:39;;;;;;;1.67;1.57;;;27.70;65.00;;;;;;4956603;28;20633;-61
2023/09/04 15:30:06;;;;;;;2.03;1.87;;;27.70;66.30;;;;;;4956619;28;20178;-62
2023/09/04 15:32:31;;;;;;;1.70;1.60;;;27.70;65.90;;;;;;4956428;28;20262;-66
2023/09/04 15:34:57;;;;;;;2.33;2.13;;;27.60;66.20;;;;;;4955906;28;20524;-62
2023/09/04 15:37:24;;;;;;;1.40;1.30;;;27.60;64.70;;;;;;4956476;28;20178;-63
2023/09/04 15:39:50;;;;;;;1.57;1.47;;;27.60;63.70;;;;;;4956319;29;20225;-62
2023/09/04 15:42:16;;;;;;;2.20;1.73;;;27.50;64.30;;;;;;4956393;29;20402;-62
2023/09/04 15:44:41;;;;;;;2.30;2.10;;;27.50;62.90;;;;;;4956113;28;20780;-65
2023/09/04 15:47:07;;;;;;;1.70;1.43;;;27.50;63.20;;;;;;4975124;28;20259;-64
2023/09/04 15:49:32;;;;;;;3.50;1.93;;;27.50;62.70;;;;;;4972747;28;20182;-66
2023/09/04 15:51:58;;;;;;;1.40;1.40;;;27.40;63.10;;;;;;4956125;28;20272;-63
2023/09/04 15:54:29;;;;;;;2.43;1.67;;;27.40;62.70;;;;;;4955481;29;20189;-65
2023/09/04 15:56:56;;;;;;;2.70;2.17;;;27.30;63.40;;;;;;4956973;28;20492;-65
2023/09/04 15:59:22;;;;;;;2.20;1.67;;;27.30;64.00;;;;;;4955996;28;20425;-63
2023/09/04 16:01:48;;;;;;;1.37;1.27;;;27.30;64.70;;;;;;4958147;28;20922;-67
2023/09/04 16:04:13;;;;;;;2.27;2.07;;;27.20;65.00;;;;;;4972984;28;20231;-64
2023/09/04 16:06:39;;;;;;;1.90;1.80;;;27.20;65.30;;;;;;4974636;28;20205;-64
2023/09/04 16:09:04;;;;;;;2.07;1.83;;;27.20;65.80;;;;;;4975079;28;20169;-67
2023/09/04 16:11:30;;;;;;;3.57;2.30;;;27.10;66.40;;;;;;4974996;28;20211;-65
2023/09/04 16:13:55;;;;;;;1.63;1.53;;;27.10;67.00;;;;;;4974585;28;20192;-63
2023/09/04 16:16:21;;;;;;;2.13;1.93;;;27.10;67.70;;;;;;4956209;28;20200;-63
2023/09/04 16:18:46;;;;;;;2.03;1.83;;;27.10;68.40;;;;;;4966011;28;20178;-61
2023/09/04 16:21:12;;;;;;;1.70;1.60;;;27.10;68.10;;;;;;4955370;28;20181;-66
2023/09/04 16:23:38;;;;;;;1.70;1.60;;;27.10;68.10;;;;;;4955324;28;20173;-64
2023/09/04 16:26:09;;;;;;;1.80;1.70;;;27.00;68.20;;;;;;4955799;28;20775;-62
2023/09/04 16:28:34;;;;;;;1.10;1.10;;;27.00;68.90;;;;;;4944553;29;20535;-63
2023/09/04 16:31:00;;;;;;;2.13;1.73;;;26.90;69.00;;;;;;4954963;28;20404;-62
2023/09/04 16:33:26;;;;;;;1.90;1.80;;;26.90;70.00;;;;;;4955208;29;20169;-67
2023/09/04 16:35:52;;;;;;;2.00;1.90;;;26.80;70.70;;;;;;4939027;29;20209;-65
2023/09/04 16:38:18;;;;;;;1.63;1.53;;;26.80;71.20;;;;;;4955138;29;20559;-61
2023/09/04 16:40:44;;;;;;;1.90;1.80;;;26.70;71.40;;;;;;4955327;29;20181;-62
2023/09/04 16:43:10;;;;;;;1.73;1.63;;;26.70;71.90;;;;;;4954864;28;20185;-64
2023/09/04 16:45:36;;;;;;;1.57;1.47;;;26.60;72.30;;;;;;4954691;28;20587;-61
2023/09/04 16:48:03;;;;;;;1.63;1.53;;;26.60;72.90;;;;;;4955188;29;20415;-65
2023/09/04 16:50:29;;;;;;;2.47;2.33;;;26.50;73.00;;;;;;4955227;29;20426;-64
2023/09/04 16:52:55;;;;;;;2.37;2.13;;;26.50;73.70;;;;;;4970676;28;20977;-63